Jarbidge, Nevada
Current Conditions -  °F | °C
As of 1:53 PM on Tuesday 21 Oct 2014 (Local Time) from KTWF Reporting Station
Clear Clear  
Wind Chill: 55°   Ceiling: Unl
Heat Index: 55°   Visibility: 10mi
Dew Point: 36°   Wind: 26mph
Humidity: 49%   Direction: 260°W
Pressure: 30.05"   Gusts: 31mph
Location:  41.87°N, 115.43°W
Report Text: KTWF 212053Z 26023G27KT 10SM CLR 13/02 A3005 RMK AO2 PK WND 26027/2052 SLP140 T01280022 50004
Loading
Personal Weather Stations






























Interactive Weather Map
Tropical Storm Tracking
New forecast layout! Learn more

10-Day Weather Forecast

Advertisements
Track Severe Weather on mobile